KARV/ARV METAR and TAF weather

Enter ICAO airport designator
Station Type Date Time Source
KARV METAR 2020/02/19 11:15 UTC NOAA

KARV 191115Z AUTO 31005KT 10SM CLR M19/M22 A3041 RMK AO2 T11911222


Station Type Date Time Source
KARV Decoded METAR 2020/02/19 11:15 UTC NOAA

Minocqua/Woodruff, Lakeland Airport/Noble F. Lee Memorial Field, WI, United States (KARV) 45-56N 089-44W
Feb 19, 2020 - 06:15 AM EST / 2020.02.19 1115 UTC
Wind: from the NW (310 degrees) at 6 MPH (5 KT):0
Visibility: 10 mile(s):0
Sky conditions: clear
Temperature: -2.4 F (-19.1 C)
Windchill: -14 F (-26 C):2
Dew Point: -8.0 F (-22.2 C)
Relative Humidity: 76%
Pressure (altimeter): 30.41 in. Hg (1029 hPa)
ob: KARV 191115Z AUTO 31005KT 10SM CLR M19/M22 A3041 RMK AO2 T11911222
cycle: 11

Station Type Date Time Source
KARV TAF UTC NOAA

Error!

Example: see airport list